sensor_id;sensor_type;location;lat;lon;timestamp;P1;durP1;ratioP1;P2;durP2;ratioP2
41572;SDS011;27286;47.870;19.006;2023-04-03T00:01:28;3.75;;;2.20;;
41572;SDS011;27286;47.870;19.006;2023-04-03T00:03:54;5.13;;;2.38;;
41572;SDS011;27286;47.870;19.006;2023-04-03T00:06:20;4.25;;;3.03;;
41572;SDS011;27286;47.870;19.006;2023-04-03T00:08:47;3.95;;;2.78;;
41572;SDS011;27286;47.870;19.006;2023-04-03T00:11:13;5.43;;;3.22;;
41572;SDS011;27286;47.870;19.006;2023-04-03T00:13:39;4.00;;;2.55;;
41572;SDS011;27286;47.870;19.006;2023-04-03T00:16:05;3.97;;;2.70;;
41572;SDS011;27286;47.870;19.006;2023-04-03T00:18:31;3.83;;;2.38;;
41572;SDS011;27286;47.870;19.006;2023-04-03T00:20:57;4.22;;;3.03;;
41572;SDS011;27286;47.870;19.006;2023-04-03T00:23:22;4.00;;;2.30;;
41572;SDS011;27286;47.870;19.006;2023-04-03T00:25:48;4.35;;;2.90;;
41572;SDS011;27286;47.870;19.006;2023-04-03T00:28:15;4.63;;;2.63;;
41572;SDS011;27286;47.870;19.006;2023-04-03T00:30:40;4.97;;;2.65;;
41572;SDS011;27286;47.870;19.006;2023-04-03T00:33:06;3.03;;;2.15;;
41572;SDS011;27286;47.870;19.006;2023-04-03T00:35:33;5.22;;;3.22;;
41572;SDS011;27286;47.870;19.006;2023-04-03T00:37:59;7.13;;;4.22;;
41572;SDS011;27286;47.870;19.006;2023-04-03T00:40:25;6.32;;;3.08;;
41572;SDS011;27286;47.870;19.006;2023-04-03T00:42:55;3.13;;;2.20;;
41572;SDS011;27286;47.870;19.006;2023-04-03T00:45:27;3.13;;;2.15;;
41572;SDS011;27286;47.870;19.006;2023-04-03T00:47:57;2.80;;;1.60;;
41572;SDS011;27286;47.870;19.006;2023-04-03T00:50:25;4.80;;;3.08;;
41572;SDS011;27286;47.870;19.006;2023-04-03T00:52:52;4.75;;;1.88;;
41572;SDS011;27286;47.870;19.006;2023-04-03T00:55:18;3.55;;;1.92;;
41572;SDS011;27286;47.870;19.006;2023-04-03T00:57:45;2.67;;;1.25;;
41572;SDS011;27286;47.870;19.006;2023-04-03T01:00:13;3.50;;;1.90;;
41572;SDS011;27286;47.870;19.006;2023-04-03T01:02:41;3.78;;;2.35;;
41572;SDS011;27286;47.870;19.006;2023-04-03T01:05:07;3.92;;;1.75;;
41572;SDS011;27286;47.870;19.006;2023-04-03T01:07:33;3.40;;;1.73;;
41572;SDS011;27286;47.870;19.006;2023-04-03T01:10:01;2.58;;;1.63;;
41572;SDS011;27286;47.870;19.006;2023-04-03T01:12:30;2.55;;;1.40;;
41572;SDS011;27286;47.870;19.006;2023-04-03T01:15:19;4.10;;;1.50;;
41572;SDS011;27286;47.870;19.006;2023-04-03T01:17:49;2.72;;;1.60;;
41572;SDS011;27286;47.870;19.006;2023-04-03T01:25:37;3.30;;;1.80;;
41572;SDS011;27286;47.870;19.006;2023-04-03T01:28:09;3.28;;;1.90;;
41572;SDS011;27286;47.870;19.006;2023-04-03T01:30:46;2.38;;;1.58;;
41572;SDS011;27286;47.870;19.006;2023-04-03T01:33:19;2.88;;;1.60;;
41572;SDS011;27286;47.870;19.006;2023-04-03T01:35:45;2.80;;;1.58;;
41572;SDS011;27286;47.870;19.006;2023-04-03T01:38:10;3.92;;;1.98;;
41572;SDS011;27286;47.870;19.006;2023-04-03T01:40:36;4.60;;;2.22;;
41572;SDS011;27286;47.870;19.006;2023-04-03T01:43:01;5.45;;;2.80;;
41572;SDS011;27286;47.870;19.006;2023-04-03T01:45:27;3.67;;;2.38;;
41572;SDS011;27286;47.870;19.006;2023-04-03T01:47:52;4.68;;;2.10;;
41572;SDS011;27286;47.870;19.006;2023-04-03T01:50:18;3.30;;;2.15;;
41572;SDS011;27286;47.870;19.006;2023-04-03T01:52:43;5.45;;;2.70;;
41572;SDS011;27286;47.870;19.006;2023-04-03T01:55:09;2.58;;;1.40;;
41572;SDS011;27286;47.870;19.006;2023-04-03T01:57:34;2.40;;;1.30;;
41572;SDS011;27286;47.870;19.006;2023-04-03T02:00:00;1.90;;;1.10;;
41572;SDS011;27286;47.870;19.006;2023-04-03T02:02:25;1.75;;;0.98;;
41572;SDS011;27286;47.870;19.006;2023-04-03T02:04:51;2.92;;;1.25;;
41572;SDS011;27286;47.870;19.006;2023-04-03T02:07:16;2.28;;;0.90;;
41572;SDS011;27286;47.870;19.006;2023-04-03T02:09:41;1.75;;;0.70;;
41572;SDS011;27286;47.870;19.006;2023-04-03T02:12:07;2.53;;;0.73;;
41572;SDS011;27286;47.870;19.006;2023-04-03T02:14:32;1.85;;;0.85;;
41572;SDS011;27286;47.870;19.006;2023-04-03T02:16:59;1.70;;;0.88;;
41572;SDS011;27286;47.870;19.006;2023-04-03T02:19:25;2.17;;;0.80;;
41572;SDS011;27286;47.870;19.006;2023-04-03T02:21:51;1.63;;;0.88;;
41572;SDS011;27286;47.870;19.006;2023-04-03T02:24:16;2.28;;;1.10;;
41572;SDS011;27286;47.870;19.006;2023-04-03T02:26:42;2.20;;;1.02;;
41572;SDS011;27286;47.870;19.006;2023-04-03T02:29:07;1.88;;;0.73;;
41572;SDS011;27286;47.870;19.006;2023-04-03T02:31:32;1.98;;;0.80;;
41572;SDS011;27286;47.870;19.006;2023-04-03T02:33:58;2.60;;;1.23;;
41572;SDS011;27286;47.870;19.006;2023-04-03T02:36:23;2.47;;;0.98;;
41572;SDS011;27286;47.870;19.006;2023-04-03T02:38:49;1.60;;;0.82;;
41572;SDS011;27286;47.870;19.006;2023-04-03T02:41:14;3.75;;;1.35;;
41572;SDS011;27286;47.870;19.006;2023-04-03T02:43:40;1.60;;;0.60;;
41572;SDS011;27286;47.870;19.006;2023-04-03T02:46:05;1.30;;;0.60;;
41572;SDS011;27286;47.870;19.006;2023-04-03T02:48:31;1.63;;;0.57;;
41572;SDS011;27286;47.870;19.006;2023-04-03T02:50:57;2.75;;;0.90;;
41572;SDS011;27286;47.870;19.006;2023-04-03T02:53:23;2.75;;;0.90;;
41572;SDS011;27286;47.870;19.006;2023-04-03T02:55:48;1.52;;;0.60;;
41572;SDS011;27286;47.870;19.006;2023-04-03T02:58:14;2.17;;;0.90;;
41572;SDS011;27286;47.870;19.006;2023-04-03T03:00:40;2.00;;;0.88;;
41572;SDS011;27286;47.870;19.006;2023-04-03T03:03:06;2.65;;;1.20;;
41572;SDS011;27286;47.870;19.006;2023-04-03T03:05:31;2.05;;;1.15;;
41572;SDS011;27286;47.870;19.006;2023-04-03T03:07:57;2.42;;;1.10;;
41572;SDS011;27286;47.870;19.006;2023-04-03T03:10:23;3.50;;;2.03;;
41572;SDS011;27286;47.870;19.006;2023-04-03T03:12:48;3.65;;;1.45;;
41572;SDS011;27286;47.870;19.006;2023-04-03T03:15:14;4.50;;;2.20;;
41572;SDS011;27286;47.870;19.006;2023-04-03T03:17:41;4.85;;;2.10;;
41572;SDS011;27286;47.870;19.006;2023-04-03T03:20:07;3.22;;;1.83;;
41572;SDS011;27286;47.870;19.006;2023-04-03T03:22:33;3.67;;;1.77;;
41572;SDS011;27286;47.870;19.006;2023-04-03T03:25:00;3.97;;;1.92;;
41572;SDS011;27286;47.870;19.006;2023-04-03T03:27:26;3.58;;;1.67;;
41572;SDS011;27286;47.870;19.006;2023-04-03T03:29:51;2.58;;;1.48;;
41572;SDS011;27286;47.870;19.006;2023-04-03T03:32:17;3.05;;;1.60;;
41572;SDS011;27286;47.870;19.006;2023-04-03T03:34:42;3.67;;;1.95;;
41572;SDS011;27286;47.870;19.006;2023-04-03T03:37:07;5.72;;;2.83;;
41572;SDS011;27286;47.870;19.006;2023-04-03T03:39:33;4.00;;;2.10;;
41572;SDS011;27286;47.870;19.006;2023-04-03T03:41:58;3.75;;;1.65;;
41572;SDS011;27286;47.870;19.006;2023-04-03T03:44:24;2.28;;;1.10;;
41572;SDS011;27286;47.870;19.006;2023-04-03T03:46:49;2.42;;;1.20;;
41572;SDS011;27286;47.870;19.006;2023-04-03T03:49:15;2.10;;;1.15;;
41572;SDS011;27286;47.870;19.006;2023-04-03T03:51:40;2.75;;;1.23;;
41572;SDS011;27286;47.870;19.006;2023-04-03T03:54:06;7.18;;;1.08;;
41572;SDS011;27286;47.870;19.006;2023-04-03T03:56:32;2.05;;;0.70;;
41572;SDS011;27286;47.870;19.006;2023-04-03T03:58:59;2.40;;;1.00;;
41572;SDS011;27286;47.870;19.006;2023-04-03T04:01:24;1.85;;;0.80;;
41572;SDS011;27286;47.870;19.006;2023-04-03T04:03:50;2.00;;;1.00;;
41572;SDS011;27286;47.870;19.006;2023-04-03T04:06:16;3.25;;;0.95;;
41572;SDS011;27286;47.870;19.006;2023-04-03T04:08:42;2.30;;;0.98;;
41572;SDS011;27286;47.870;19.006;2023-04-03T04:11:07;2.30;;;1.23;;
41572;SDS011;27286;47.870;19.006;2023-04-03T04:13:33;3.63;;;1.17;;
41572;SDS011;27286;47.870;19.006;2023-04-03T04:15:59;3.78;;;1.17;;
41572;SDS011;27286;47.870;19.006;2023-04-03T04:18:25;1.58;;;0.70;;
41572;SDS011;27286;47.870;19.006;2023-04-03T04:20:50;4.43;;;0.82;;
41572;SDS011;27286;47.870;19.006;2023-04-03T04:23:16;2.53;;;1.17;;
41572;SDS011;27286;47.870;19.006;2023-04-03T04:25:46;3.28;;;1.10;;
41572;SDS011;27286;47.870;19.006;2023-04-03T04:28:13;3.10;;;0.88;;
41572;SDS011;27286;47.870;19.006;2023-04-03T04:30:39;3.53;;;1.42;;
41572;SDS011;27286;47.870;19.006;2023-04-03T04:33:05;2.50;;;0.90;;
41572;SDS011;27286;47.870;19.006;2023-04-03T04:35:31;2.13;;;1.08;;
41572;SDS011;27286;47.870;19.006;2023-04-03T04:37:57;2.70;;;0.88;;
41572;SDS011;27286;47.870;19.006;2023-04-03T04:40:23;2.78;;;1.25;;
41572;SDS011;27286;47.870;19.006;2023-04-03T04:42:48;2.58;;;1.10;;
41572;SDS011;27286;47.870;19.006;2023-04-03T04:45:14;2.17;;;1.23;;
41572;SDS011;27286;47.870;19.006;2023-04-03T04:47:40;2.97;;;1.10;;
41572;SDS011;27286;47.870;19.006;2023-04-03T04:50:06;2.50;;;1.00;;
41572;SDS011;27286;47.870;19.006;2023-04-03T04:52:32;8.02;;;1.23;;
41572;SDS011;27286;47.870;19.006;2023-04-03T04:54:57;2.22;;;1.10;;
41572;SDS011;27286;47.870;19.006;2023-04-03T04:57:23;2.45;;;1.05;;
41572;SDS011;27286;47.870;19.006;2023-04-03T04:59:48;2.67;;;1.25;;
41572;SDS011;27286;47.870;19.006;2023-04-03T05:02:13;2.20;;;1.15;;
41572;SDS011;27286;47.870;19.006;2023-04-03T05:04:39;2.72;;;0.93;;
41572;SDS011;27286;47.870;19.006;2023-04-03T05:07:04;2.97;;;1.63;;
41572;SDS011;27286;47.870;19.006;2023-04-03T05:09:30;5.00;;;2.85;;
41572;SDS011;27286;47.870;19.006;2023-04-03T05:11:55;10.60;;;5.43;;
41572;SDS011;27286;47.870;19.006;2023-04-03T05:14:21;6.07;;;3.65;;
41572;SDS011;27286;47.870;19.006;2023-04-03T05:16:47;4.20;;;2.17;;
41572;SDS011;27286;47.870;19.006;2023-04-03T05:19:13;2.88;;;1.60;;
41572;SDS011;27286;47.870;19.006;2023-04-03T05:21:38;3.22;;;1.80;;
41572;SDS011;27286;47.870;19.006;2023-04-03T05:24:04;3.85;;;1.92;;
41572;SDS011;27286;47.870;19.006;2023-04-03T05:26:30;3.65;;;2.17;;
41572;SDS011;27286;47.870;19.006;2023-04-03T05:28:57;4.25;;;1.70;;
41572;SDS011;27286;47.870;19.006;2023-04-03T05:31:23;5.65;;;2.42;;
41572;SDS011;27286;47.870;19.006;2023-04-03T05:33:48;11.65;;;1.98;;
41572;SDS011;27286;47.870;19.006;2023-04-03T05:36:14;1.88;;;0.93;;
41572;SDS011;27286;47.870;19.006;2023-04-03T05:38:39;1.92;;;0.90;;
41572;SDS011;27286;47.870;19.006;2023-04-03T05:41:05;2.58;;;1.63;;
41572;SDS011;27286;47.870;19.006;2023-04-03T05:43:31;3.80;;;2.25;;
41572;SDS011;27286;47.870;19.006;2023-04-03T05:45:56;3.15;;;1.50;;
41572;SDS011;27286;47.870;19.006;2023-04-03T05:48:22;3.90;;;1.45;;
41572;SDS011;27286;47.870;19.006;2023-04-03T05:50:47;3.17;;;1.00;;
41572;SDS011;27286;47.870;19.006;2023-04-03T05:53:17;2.53;;;1.17;;
41572;SDS011;27286;47.870;19.006;2023-04-03T05:55:47;2.88;;;1.27;;
41572;SDS011;27286;47.870;19.006;2023-04-03T05:58:12;1.83;;;1.02;;
41572;SDS011;27286;47.870;19.006;2023-04-03T06:00:38;3.08;;;0.82;;
41572;SDS011;27286;47.870;19.006;2023-04-03T06:03:03;4.20;;;0.75;;
41572;SDS011;27286;47.870;19.006;2023-04-03T06:05:29;1.45;;;0.40;;
41572;SDS011;27286;47.870;19.006;2023-04-03T06:07:55;2.42;;;0.43;;
41572;SDS011;27286;47.870;19.006;2023-04-03T06:10:22;0.77;;;0.20;;
41572;SDS011;27286;47.870;19.006;2023-04-03T06:12:47;0.93;;;0.30;;
41572;SDS011;27286;47.870;19.006;2023-04-03T06:15:13;1.30;;;0.20;;
41572;SDS011;27286;47.870;19.006;2023-04-03T06:17:38;1.63;;;0.20;;
41572;SDS011;27286;47.870;19.006;2023-04-03T06:20:04;0.82;;;0.20;;
41572;SDS011;27286;47.870;19.006;2023-04-03T06:22:30;3.92;;;0.20;;
41572;SDS011;27286;47.870;19.006;2023-04-03T06:24:56;2.28;;;1.10;;
41572;SDS011;27286;47.870;19.006;2023-04-03T06:27:22;0.80;;;0.20;;
41572;SDS011;27286;47.870;19.006;2023-04-03T06:29:47;0.93;;;0.30;;
41572;SDS011;27286;47.870;19.006;2023-04-03T06:32:14;1.02;;;0.30;;
41572;SDS011;27286;47.870;19.006;2023-04-03T06:34:40;0.70;;;0.20;;
41572;SDS011;27286;47.870;19.006;2023-04-03T06:37:06;1.17;;;0.30;;
41572;SDS011;27286;47.870;19.006;2023-04-03T06:39:39;0.70;;;0.20;;
41572;SDS011;27286;47.870;19.006;2023-04-03T06:42:05;0.57;;;0.28;;
41572;SDS011;27286;47.870;19.006;2023-04-03T06:44:30;2.10;;;0.17;;
41572;SDS011;27286;47.870;19.006;2023-04-03T06:46:58;0.80;;;0.20;;
41572;SDS011;27286;47.870;19.006;2023-04-03T06:49:24;0.85;;;0.20;;
41572;SDS011;27286;47.870;19.006;2023-04-03T06:51:50;1.08;;;0.30;;
41572;SDS011;27286;47.870;19.006;2023-04-03T06:54:16;0.60;;;0.10;;
41572;SDS011;27286;47.870;19.006;2023-04-03T06:56:42;5.35;;;0.20;;
41572;SDS011;27286;47.870;19.006;2023-04-03T06:59:07;0.40;;;0.15;;
41572;SDS011;27286;47.870;19.006;2023-04-03T07:01:34;0.77;;;0.20;;
41572;SDS011;27286;47.870;19.006;2023-04-03T07:04:00;0.82;;;0.20;;
41572;SDS011;27286;47.870;19.006;2023-04-03T07:06:25;0.80;;;0.20;;
41572;SDS011;27286;47.870;19.006;2023-04-03T07:08:54;0.43;;;0.10;;
41572;SDS011;27286;47.870;19.006;2023-04-03T07:11:20;0.10;;;0.00;;
41572;SDS011;27286;47.870;19.006;2023-04-03T07:13:46;0.77;;;0.30;;
41572;SDS011;27286;47.870;19.006;2023-04-03T07:16:11;0.68;;;0.15;;
41572;SDS011;27286;47.870;19.006;2023-04-03T07:18:37;4.47;;;0.20;;
41572;SDS011;27286;47.870;19.006;2023-04-03T07:21:03;0.88;;;0.20;;
41572;SDS011;27286;47.870;19.006;2023-04-03T07:23:29;0.90;;;0.10;;
41572;SDS011;27286;47.870;19.006;2023-04-03T07:25:55;0.35;;;0.13;;
41572;SDS011;27286;47.870;19.006;2023-04-03T07:28:21;2.97;;;0.10;;
41572;SDS011;27286;47.870;19.006;2023-04-03T07:30:49;0.35;;;0.10;;
41572;SDS011;27286;47.870;19.006;2023-04-03T07:33:19;2.45;;;0.20;;
41572;SDS011;27286;47.870;19.006;2023-04-03T07:35:46;2.60;;;0.20;;
41572;SDS011;27286;47.870;19.006;2023-04-03T07:38:12;0.90;;;0.10;;
41572;SDS011;27286;47.870;19.006;2023-04-03T07:40:38;0.60;;;0.10;;
41572;SDS011;27286;47.870;19.006;2023-04-03T07:43:05;4.00;;;0.10;;
41572;SDS011;27286;47.870;19.006;2023-04-03T07:45:31;2.75;;;0.10;;
41572;SDS011;27286;47.870;19.006;2023-04-03T07:47:57;3.45;;;0.10;;
41572;SDS011;27286;47.870;19.006;2023-04-03T07:50:22;7.32;;;0.20;;
41572;SDS011;27286;47.870;19.006;2023-04-03T07:52:48;0.30;;;0.10;;
41572;SDS011;27286;47.870;19.006;2023-04-03T07:55:15;0.98;;;0.10;;
41572;SDS011;27286;47.870;19.006;2023-04-03T07:57:41;0.35;;;0.10;;
41572;SDS011;27286;47.870;19.006;2023-04-03T08:00:07;0.63;;;0.10;;
41572;SDS011;27286;47.870;19.006;2023-04-03T08:02:33;0.20;;;0.10;;
41572;SDS011;27286;47.870;19.006;2023-04-03T08:04:59;0.20;;;0.00;;
41572;SDS011;27286;47.870;19.006;2023-04-03T08:07:24;0.30;;;0.10;;
41572;SDS011;27286;47.870;19.006;2023-04-03T08:09:50;2.00;;;0.10;;
41572;SDS011;27286;47.870;19.006;2023-04-03T08:12:16;0.90;;;0.17;;
41572;SDS011;27286;47.870;19.006;2023-04-03T08:14:41;0.30;;;0.10;;
41572;SDS011;27286;47.870;19.006;2023-04-03T08:17:07;3.70;;;0.20;;
41572;SDS011;27286;47.870;19.006;2023-04-03T08:19:36;1.90;;;0.10;;
41572;SDS011;27286;47.870;19.006;2023-04-03T08:22:05;0.30;;;0.10;;
41572;SDS011;27286;47.870;19.006;2023-04-03T08:24:34;0.40;;;0.10;;
41572;SDS011;27286;47.870;19.006;2023-04-03T08:27:00;0.70;;;0.10;;
41572;SDS011;27286;47.870;19.006;2023-04-03T08:29:26;0.70;;;0.20;;
41572;SDS011;27286;47.870;19.006;2023-04-03T08:31:51;0.08;;;0.08;;
41572;SDS011;27286;47.870;19.006;2023-04-03T08:34:17;0.20;;;0.10;;
41572;SDS011;27286;47.870;19.006;2023-04-03T08:36:43;0.20;;;0.10;;
41572;SDS011;27286;47.870;19.006;2023-04-03T08:39:09;1.30;;;0.25;;
41572;SDS011;27286;47.870;19.006;2023-04-03T08:41:37;0.63;;;0.20;;
41572;SDS011;27286;47.870;19.006;2023-04-03T08:49:49;0.90;;;0.10;;
41572;SDS011;27286;47.870;19.006;2023-04-03T08:52:19;0.22;;;0.10;;
41572;SDS011;27286;47.870;19.006;2023-04-03T08:54:56;0.85;;;0.10;;
41572;SDS011;27286;47.870;19.006;2023-04-03T08:57:33;0.52;;;0.15;;
41572;SDS011;27286;47.870;19.006;2023-04-03T09:02:49;0.85;;;0.20;;
41572;SDS011;27286;47.870;19.006;2023-04-03T09:05:17;0.20;;;0.10;;
41572;SDS011;27286;47.870;19.006;2023-04-03T09:07:49;0.57;;;0.20;;
41572;SDS011;27286;47.870;19.006;2023-04-03T09:10:27;0.50;;;0.10;;
41572;SDS011;27286;47.870;19.006;2023-04-03T09:12:59;0.47;;;0.15;;
41572;SDS011;27286;47.870;19.006;2023-04-03T09:19:15;0.20;;;0.10;;
41572;SDS011;27286;47.870;19.006;2023-04-03T09:26:06;0.70;;;0.10;;
41572;SDS011;27286;47.870;19.006;2023-04-03T09:28:40;0.45;;;0.15;;
41572;SDS011;27286;47.870;19.006;2023-04-03T09:38:37;1.55;;;0.10;;
41572;SDS011;27286;47.870;19.006;2023-04-03T09:52:39;0.20;;;0.00;;
41572;SDS011;27286;47.870;19.006;2023-04-03T09:57:44;0.32;;;0.05;;
41572;SDS011;27286;47.870;19.006;2023-04-03T10:00:21;0.28;;;0.10;;
41572;SDS011;27286;47.870;19.006;2023-04-03T10:02:58;3.35;;;0.00;;
41572;SDS011;27286;47.870;19.006;2023-04-03T10:05:32;0.20;;;0.10;;
41572;SDS011;27286;47.870;19.006;2023-04-03T10:08:10;7.53;;;0.15;;
41572;SDS011;27286;47.870;19.006;2023-04-03T10:10:43;0.43;;;0.10;;
41572;SDS011;27286;47.870;19.006;2023-04-03T10:13:14;0.10;;;0.00;;
41572;SDS011;27286;47.870;19.006;2023-04-03T10:15:54;2.15;;;0.10;;
41572;SDS011;27286;47.870;19.006;2023-04-03T10:21:08;0.20;;;0.10;;
41572;SDS011;27286;47.870;19.006;2023-04-03T10:23:44;0.30;;;0.10;;
41572;SDS011;27286;47.870;19.006;2023-04-03T10:31:54;0.35;;;0.10;;
41572;SDS011;27286;47.870;19.006;2023-04-03T10:34:35;0.22;;;0.10;;
41572;SDS011;27286;47.870;19.006;2023-04-03T10:39:59;0.22;;;0.10;;
41572;SDS011;27286;47.870;19.006;2023-04-03T10:42:54;0.28;;;0.10;;
41572;SDS011;27286;47.870;19.006;2023-04-03T10:46:00;0.55;;;0.10;;
41572;SDS011;27286;47.870;19.006;2023-04-03T10:51:15;5.03;;;0.10;;
41572;SDS011;27286;47.870;19.006;2023-04-03T11:35:01;0.50;;;0.10;;
41572;SDS011;27286;47.870;19.006;2023-04-03T11:37:47;0.68;;;0.10;;
41572;SDS011;27286;47.870;19.006;2023-04-03T11:42:43;0.40;;;0.10;;
41572;SDS011;27286;47.870;19.006;2023-04-03T11:47:52;0.38;;;0.10;;
41572;SDS011;27286;47.870;19.006;2023-04-03T12:19:00;3.00;;;0.20;;
41572;SDS011;27286;47.870;19.006;2023-04-03T12:29:24;3.08;;;0.20;;
41572;SDS011;27286;47.870;19.006;2023-04-03T12:37:58;0.80;;;0.20;;
41572;SDS011;27286;47.870;19.006;2023-04-03T12:46:20;0.60;;;0.10;;
41572;SDS011;27286;47.870;19.006;2023-04-03T12:48:48;0.75;;;0.20;;
41572;SDS011;27286;47.870;19.006;2023-04-03T12:51:24;5.18;;;0.50;;
41572;SDS011;27286;47.870;19.006;2023-04-03T12:53:52;0.65;;;0.20;;
41572;SDS011;27286;47.870;19.006;2023-04-03T12:56:31;1.33;;;0.20;;
41572;SDS011;27286;47.870;19.006;2023-04-03T12:59:42;0.85;;;0.30;;
41572;SDS011;27286;47.870;19.006;2023-04-03T13:01:58;0.43;;;0.10;;
41572;SDS011;27286;47.870;19.006;2023-04-03T13:04:29;1.10;;;0.20;;
41572;SDS011;27286;47.870;19.006;2023-04-03T13:06:56;0.55;;;0.13;;
41572;SDS011;27286;47.870;19.006;2023-04-03T13:09:31;0.50;;;0.10;;
41572;SDS011;27286;47.870;19.006;2023-04-03T13:12:10;1.48;;;0.63;;
41572;SDS011;27286;47.870;19.006;2023-04-03T13:14:38;0.20;;;0.10;;
41572;SDS011;27286;47.870;19.006;2023-04-03T13:17:15;0.43;;;0.10;;
41572;SDS011;27286;47.870;19.006;2023-04-03T13:19:41;0.40;;;0.10;;
41572;SDS011;27286;47.870;19.006;2023-04-03T13:22:53;0.82;;;0.10;;
41572;SDS011;27286;47.870;19.006;2023-04-03T13:25:09;1.00;;;0.35;;
41572;SDS011;27286;47.870;19.006;2023-04-03T13:27:38;2.00;;;0.10;;
41572;SDS011;27286;47.870;19.006;2023-04-03T13:30:17;0.40;;;0.10;;
41572;SDS011;27286;47.870;19.006;2023-04-03T13:32:46;0.60;;;0.20;;
41572;SDS011;27286;47.870;19.006;2023-04-03T13:35:27;0.55;;;0.15;;
41572;SDS011;27286;47.870;19.006;2023-04-03T13:43:23;0.75;;;0.10;;
41572;SDS011;27286;47.870;19.006;2023-04-03T13:48:22;0.75;;;0.20;;
41572;SDS011;27286;47.870;19.006;2023-04-03T13:53:22;2.20;;;0.30;;
41572;SDS011;27286;47.870;19.006;2023-04-03T13:56:05;0.50;;;0.20;;
41572;SDS011;27286;47.870;19.006;2023-04-03T13:58:33;0.90;;;0.30;;
41572;SDS011;27286;47.870;19.006;2023-04-03T14:01:14;0.75;;;0.20;;
41572;SDS011;27286;47.870;19.006;2023-04-03T14:06:16;2.42;;;0.30;;
41572;SDS011;27286;47.870;19.006;2023-04-03T14:08:43;7.32;;;0.60;;
41572;SDS011;27286;47.870;19.006;2023-04-03T14:11:19;1.63;;;0.30;;
41572;SDS011;27286;47.870;19.006;2023-04-03T14:13:52;3.97;;;0.40;;
41572;SDS011;27286;47.870;19.006;2023-04-03T14:16:19;1.40;;;0.50;;
41572;SDS011;27286;47.870;19.006;2023-04-03T14:18:48;1.15;;;0.20;;
41572;SDS011;27286;47.870;19.006;2023-04-03T14:21:16;0.98;;;0.20;;
41572;SDS011;27286;47.870;19.006;2023-04-03T14:23:42;0.82;;;0.20;;
41572;SDS011;27286;47.870;19.006;2023-04-03T14:26:28;2.88;;;0.85;;
41572;SDS011;27286;47.870;19.006;2023-04-03T14:28:55;5.28;;;1.65;;
41572;SDS011;27286;47.870;19.006;2023-04-03T14:31:21;0.80;;;0.25;;
41572;SDS011;27286;47.870;19.006;2023-04-03T14:33:47;0.80;;;0.20;;
41572;SDS011;27286;47.870;19.006;2023-04-03T14:36:14;1.10;;;0.20;;
41572;SDS011;27286;47.870;19.006;2023-04-03T14:38:41;1.25;;;0.20;;
41572;SDS011;27286;47.870;19.006;2023-04-03T14:41:09;1.35;;;0.30;;
41572;SDS011;27286;47.870;19.006;2023-04-03T14:43:37;0.88;;;0.20;;
41572;SDS011;27286;47.870;19.006;2023-04-03T14:46:03;1.05;;;0.20;;
41572;SDS011;27286;47.870;19.006;2023-04-03T14:48:30;1.80;;;0.30;;
41572;SDS011;27286;47.870;19.006;2023-04-03T14:50:55;2.25;;;0.28;;
41572;SDS011;27286;47.870;19.006;2023-04-03T14:53:22;1.10;;;0.30;;
41572;SDS011;27286;47.870;19.006;2023-04-03T14:55:50;2.95;;;0.40;;
41572;SDS011;27286;47.870;19.006;2023-04-03T14:58:17;2.67;;;0.25;;
41572;SDS011;27286;47.870;19.006;2023-04-03T15:00:44;0.63;;;0.20;;
41572;SDS011;27286;47.870;19.006;2023-04-03T15:03:17;0.70;;;0.20;;
41572;SDS011;27286;47.870;19.006;2023-04-03T15:05:47;1.80;;;0.20;;
41572;SDS011;27286;47.870;19.006;2023-04-03T15:08:18;0.98;;;0.28;;
41572;SDS011;27286;47.870;19.006;2023-04-03T15:10:49;1.20;;;0.30;;
41572;SDS011;27286;47.870;19.006;2023-04-03T15:13:17;3.03;;;0.20;;
41572;SDS011;27286;47.870;19.006;2023-04-03T15:15:43;1.33;;;0.30;;
41572;SDS011;27286;47.870;19.006;2023-04-03T15:18:10;0.75;;;0.20;;
41572;SDS011;27286;47.870;19.006;2023-04-03T15:20:40;11.30;;;0.40;;
41572;SDS011;27286;47.870;19.006;2023-04-03T15:23:05;0.70;;;0.20;;
41572;SDS011;27286;47.870;19.006;2023-04-03T15:25:31;0.80;;;0.20;;
41572;SDS011;27286;47.870;19.006;2023-04-03T15:27:57;0.65;;;0.20;;
41572;SDS011;27286;47.870;19.006;2023-04-03T15:30:23;0.90;;;0.28;;
41572;SDS011;27286;47.870;19.006;2023-04-03T15:32:49;4.30;;;0.30;;
41572;SDS011;27286;47.870;19.006;2023-04-03T15:35:15;1.02;;;0.30;;
41572;SDS011;27286;47.870;19.006;2023-04-03T15:37:41;4.47;;;0.35;;
41572;SDS011;27286;47.870;19.006;2023-04-03T15:40:07;1.65;;;0.30;;
41572;SDS011;27286;47.870;19.006;2023-04-03T15:42:33;3.35;;;0.38;;
41572;SDS011;27286;47.870;19.006;2023-04-03T15:44:58;1.98;;;0.32;;
41572;SDS011;27286;47.870;19.006;2023-04-03T15:47:24;2.13;;;0.43;;
41572;SDS011;27286;47.870;19.006;2023-04-03T15:49:51;1.33;;;0.40;;
41572;SDS011;27286;47.870;19.006;2023-04-03T15:52:18;1.45;;;0.40;;
41572;SDS011;27286;47.870;19.006;2023-04-03T15:54:43;1.85;;;0.55;;
41572;SDS011;27286;47.870;19.006;2023-04-03T15:57:08;2.13;;;0.45;;
41572;SDS011;27286;47.870;19.006;2023-04-03T15:59:34;3.17;;;0.43;;
41572;SDS011;27286;47.870;19.006;2023-04-03T16:02:00;1.92;;;0.38;;
41572;SDS011;27286;47.870;19.006;2023-04-03T16:04:28;1.80;;;0.32;;
41572;SDS011;27286;47.870;19.006;2023-04-03T16:06:54;2.83;;;0.28;;
41572;SDS011;27286;47.870;19.006;2023-04-03T16:09:20;1.63;;;0.60;;
41572;SDS011;27286;47.870;19.006;2023-04-03T16:11:45;1.27;;;0.30;;
41572;SDS011;27286;47.870;19.006;2023-04-03T16:14:11;1.45;;;0.30;;
41572;SDS011;27286;47.870;19.006;2023-04-03T16:16:37;1.52;;;0.40;;
41572;SDS011;27286;47.870;19.006;2023-04-03T16:19:03;1.65;;;0.52;;
41572;SDS011;27286;47.870;19.006;2023-04-03T16:21:29;3.17;;;0.55;;
41572;SDS011;27286;47.870;19.006;2023-04-03T16:23:57;2.75;;;0.77;;
41572;SDS011;27286;47.870;19.006;2023-04-03T16:26:23;3.53;;;0.55;;
41572;SDS011;27286;47.870;19.006;2023-04-03T16:28:48;1.88;;;0.57;;
41572;SDS011;27286;47.870;19.006;2023-04-03T16:31:14;1.90;;;0.40;;
41572;SDS011;27286;47.870;19.006;2023-04-03T16:33:40;4.25;;;0.52;;
41572;SDS011;27286;47.870;19.006;2023-04-03T16:36:06;1.92;;;0.75;;
41572;SDS011;27286;47.870;19.006;2023-04-03T16:38:32;2.22;;;0.50;;
41572;SDS011;27286;47.870;19.006;2023-04-03T16:40:58;3.92;;;0.70;;
41572;SDS011;27286;47.870;19.006;2023-04-03T16:43:27;1.77;;;0.73;;
41572;SDS011;27286;47.870;19.006;2023-04-03T16:45:52;1.83;;;0.50;;
41572;SDS011;27286;47.870;19.006;2023-04-03T16:48:18;2.28;;;0.55;;
41572;SDS011;27286;47.870;19.006;2023-04-03T16:50:47;2.20;;;0.65;;
41572;SDS011;27286;47.870;19.006;2023-04-03T16:53:14;2.50;;;0.50;;
41572;SDS011;27286;47.870;19.006;2023-04-03T16:55:40;2.17;;;0.65;;
41572;SDS011;27286;47.870;19.006;2023-04-03T16:58:05;1.58;;;0.50;;
41572;SDS011;27286;47.870;19.006;2023-04-03T17:00:32;2.25;;;0.65;;
41572;SDS011;27286;47.870;19.006;2023-04-03T17:02:58;2.72;;;0.80;;
41572;SDS011;27286;47.870;19.006;2023-04-03T17:05:24;5.07;;;0.57;;
41572;SDS011;27286;47.870;19.006;2023-04-03T17:07:50;1.73;;;0.65;;
41572;SDS011;27286;47.870;19.006;2023-04-03T17:10:16;2.15;;;0.57;;
41572;SDS011;27286;47.870;19.006;2023-04-03T17:12:42;2.58;;;0.80;;
41572;SDS011;27286;47.870;19.006;2023-04-03T17:15:08;4.65;;;0.85;;
41572;SDS011;27286;47.870;19.006;2023-04-03T17:17:34;4.40;;;0.85;;
41572;SDS011;27286;47.870;19.006;2023-04-03T17:20:00;2.95;;;0.65;;
41572;SDS011;27286;47.870;19.006;2023-04-03T17:22:27;3.80;;;0.93;;